createdAt,value
2023-02-23T00:01:55.866Z,21.92
2023-02-23T00:04:23.692Z,19.00
2023-02-23T00:06:54.004Z,18.20
2023-02-23T00:09:24.592Z,18.45
2023-02-23T00:11:53.151Z,18.80
2023-02-23T00:14:20.769Z,20.83
2023-02-23T00:16:47.954Z,18.30
2023-02-23T00:19:15.460Z,16.65
2023-02-23T00:21:42.667Z,18.73
2023-02-23T00:24:11.521Z,18.73
2023-02-23T00:26:40.473Z,22.02
2023-02-23T00:29:09.434Z,19.77
2023-02-23T00:31:38.585Z,21.10
2023-02-23T00:34:06.374Z,17.45
2023-02-23T00:36:34.445Z,21.88
2023-02-23T00:39:19.745Z,18.98
2023-02-23T00:41:46.882Z,19.10
2023-02-23T00:44:15.419Z,21.80
2023-02-23T00:46:43.630Z,18.73
2023-02-23T00:49:12.311Z,21.27
2023-02-23T00:51:39.740Z,20.27
2023-02-23T00:54:07.511Z,21.38
2023-02-23T00:56:34.849Z,20.00
2023-02-23T00:59:02.508Z,20.00
2023-02-23T01:01:29.870Z,19.67
2023-02-23T01:03:57.075Z,19.83
2023-02-23T01:06:24.291Z,17.58
2023-02-23T01:08:57.029Z,21.40
2023-02-23T01:11:27.756Z,21.67
2023-02-23T01:13:56.553Z,21.92
2023-02-23T01:16:28.168Z,18.05
2023-02-23T01:18:56.505Z,20.23
2023-02-23T01:21:25.384Z,22.70
2023-02-23T01:23:53.381Z,21.13
2023-02-23T01:26:21.724Z,22.23
2023-02-23T01:28:56.151Z,22.15
2023-02-23T01:31:24.267Z,21.20
2023-02-23T01:33:55.475Z,20.50
2023-02-23T01:36:23.083Z,23.60
2023-02-23T01:38:50.449Z,23.13
2023-02-23T01:41:18.016Z,21.92
2023-02-23T01:44:15.097Z,21.27
2023-02-23T01:46:45.992Z,22.98
2023-02-23T01:49:16.790Z,21.10
2023-02-23T01:51:48.420Z,23.08
2023-02-23T01:54:26.613Z,23.98
2023-02-23T01:56:58.242Z,25.17
2023-02-23T01:59:30.099Z,21.20
2023-02-23T02:01:57.302Z,20.83
2023-02-23T02:04:25.915Z,21.65
2023-02-23T02:06:53.975Z,21.60
2023-02-23T02:09:25.670Z,19.92
2023-02-23T02:11:54.272Z,21.10
2023-02-23T02:14:23.367Z,23.02
2023-02-23T02:17:02.388Z,21.92
2023-02-23T02:19:48.775Z,20.40
2023-02-23T02:22:34.854Z,20.27
2023-02-23T02:25:25.360Z,25.70
2023-02-23T02:27:58.290Z,21.15
2023-02-23T02:30:25.436Z,22.33
2023-02-23T02:33:10.991Z,23.30
2023-02-23T02:35:40.958Z,23.17
2023-02-23T02:38:29.533Z,20.45
2023-02-23T02:41:07.960Z,21.90
2023-02-23T02:43:42.923Z,23.70
2023-02-23T02:48:44.790Z,25.77
2023-02-23T02:51:32.177Z,25.40
2023-02-23T02:54:07.269Z,25.55
2023-02-23T02:56:40.495Z,26.27
2023-02-23T02:59:37.124Z,25.50
2023-02-23T03:02:24.227Z,21.70
2023-02-23T03:05:10.304Z,20.30
2023-02-23T03:08:00.221Z,21.85
2023-02-23T03:11:18.447Z,21.85
2023-02-23T03:14:07.073Z,22.77
2023-02-23T03:17:01.617Z,21.75
2023-02-23T03:19:50.192Z,27.33
2023-02-23T03:22:41.140Z,24.38
2023-02-23T03:25:39.252Z,24.30
2023-02-23T03:28:44.508Z,26.80
2023-02-23T03:31:30.420Z,27.87
2023-02-23T03:34:19.306Z,21.58
2023-02-23T03:37:07.598Z,22.73
2023-02-23T03:40:07.057Z,22.15
2023-02-23T03:42:55.066Z,23.50
2023-02-23T03:45:42.828Z,26.88
2023-02-23T03:48:30.534Z,29.17
2023-02-23T03:51:18.871Z,26.88
2023-02-23T03:54:09.992Z,24.65
2023-02-23T03:56:58.883Z,25.27
2023-02-23T03:59:49.106Z,25.52
2023-02-23T04:02:36.797Z,25.60
2023-02-23T04:05:25.886Z,28.38
2023-02-23T04:08:13.407Z,29.23
2023-02-23T04:11:03.979Z,21.90
2023-02-23T04:13:31.546Z,24.80
2023-02-23T04:16:01.021Z,24.25
2023-02-23T04:18:29.658Z,27.30
2023-02-23T04:20:57.597Z,19.55
2023-02-23T04:23:24.944Z,25.02
2023-02-23T04:25:53.040Z,21.45
2023-02-23T04:28:21.035Z,23.40
2023-02-23T04:30:48.420Z,25.70
2023-02-23T04:33:15.973Z,19.85
2023-02-23T04:35:43.150Z,23.67
2023-02-23T04:38:10.373Z,23.75
2023-02-23T04:40:37.576Z,21.80
2023-02-23T04:43:04.730Z,23.70
2023-02-23T04:45:31.887Z,23.20
2023-02-23T04:47:59.076Z,24.70
2023-02-23T04:50:26.223Z,26.45
2023-02-23T04:52:53.429Z,21.05
2023-02-23T04:55:24.506Z,20.45
2023-02-23T04:57:52.534Z,23.92
2023-02-23T05:00:20.096Z,22.48
2023-02-23T05:02:48.466Z,24.77
2023-02-23T05:05:16.835Z,21.98
2023-02-23T05:07:43.995Z,21.23
2023-02-23T05:10:11.503Z,20.45
2023-02-23T05:12:38.764Z,19.65
2023-02-23T05:15:07.023Z,19.45
2023-02-23T05:17:34.191Z,21.63
2023-02-23T05:20:01.376Z,21.55
2023-02-23T05:22:28.573Z,19.98
2023-02-23T05:24:57.419Z,22.17
2023-02-23T05:27:24.855Z,24.85
2023-02-23T05:29:52.030Z,23.88
2023-02-23T05:32:19.364Z,21.50
2023-02-23T05:34:46.533Z,25.30
2023-02-23T05:37:13.875Z,21.35
2023-02-23T05:39:41.042Z,21.08
2023-02-23T05:42:08.173Z,22.60
2023-02-23T05:44:35.364Z,26.00
2023-02-23T05:47:02.490Z,23.08
2023-02-23T05:49:29.728Z,27.83
2023-02-23T05:51:56.824Z,21.52
2023-02-23T05:54:24.003Z,24.30
2023-02-23T05:56:51.176Z,26.05
2023-02-23T05:59:18.413Z,22.23
2023-02-23T06:01:45.549Z,21.13
2023-02-23T06:04:12.773Z,25.58
2023-02-23T06:06:40.032Z,29.40
2023-02-23T06:09:07.142Z,24.42
2023-02-23T06:11:34.284Z,22.42
2023-02-23T06:14:01.476Z,25.58
2023-02-23T06:16:28.792Z,23.65
2023-02-23T06:18:56.048Z,21.05
2023-02-23T06:21:23.400Z,20.13
2023-02-23T06:23:50.592Z,24.52
2023-02-23T06:26:17.984Z,26.92
2023-02-23T06:28:46.315Z,23.75
2023-02-23T06:31:15.074Z,24.33
2023-02-23T06:33:42.231Z,21.25
2023-02-23T06:36:10.420Z,21.10
2023-02-23T06:38:38.199Z,22.52
2023-02-23T06:41:09.300Z,21.17
2023-02-23T06:43:36.839Z,24.85
2023-02-23T06:46:04.652Z,23.05
2023-02-23T06:48:32.387Z,22.85
2023-02-23T06:51:00.239Z,23.27
2023-02-23T06:53:27.462Z,21.98
2023-02-23T06:55:57.512Z,23.13
2023-02-23T06:58:24.773Z,19.98
2023-02-23T07:00:54.228Z,24.75
2023-02-23T07:03:21.412Z,23.10
2023-02-23T07:05:50.175Z,20.08
2023-02-23T07:08:18.382Z,22.77
2023-02-23T07:10:46.266Z,26.27
2023-02-23T07:13:13.514Z,22.13
2023-02-23T07:15:41.864Z,21.38
2023-02-23T07:18:09.052Z,18.38
2023-02-23T07:20:36.224Z,30.45
2023-02-23T07:23:03.443Z,24.92
2023-02-23T07:25:30.656Z,24.13
2023-02-23T07:27:59.161Z,27.20
2023-02-23T07:30:26.471Z,25.05
2023-02-23T07:32:54.391Z,26.73
2023-02-23T07:35:21.537Z,23.88
2023-02-23T07:37:48.783Z,25.35
2023-02-23T07:40:15.981Z,20.20
2023-02-23T07:42:43.101Z,28.08
2023-02-23T07:45:10.384Z,25.10
2023-02-23T07:47:37.627Z,25.95
2023-02-23T07:50:10.257Z,24.00
2023-02-23T07:52:38.433Z,22.88
2023-02-23T07:55:06.180Z,23.27
2023-02-23T07:57:33.817Z,26.35
2023-02-23T08:00:01.073Z,22.00
2023-02-23T08:02:32.335Z,24.63
2023-02-23T08:04:59.667Z,26.30
2023-02-23T08:07:26.856Z,22.58
2023-02-23T08:09:54.151Z,21.33
2023-02-23T08:12:21.309Z,21.75
2023-02-23T08:14:48.478Z,23.85
2023-02-23T08:17:15.635Z,18.80
2023-02-23T08:19:42.790Z,26.38
2023-02-23T08:22:10.308Z,20.48
2023-02-23T08:24:38.069Z,22.42
2023-02-23T08:27:05.460Z,20.90
2023-02-23T08:29:33.381Z,23.05
2023-02-23T08:32:02.259Z,19.50
2023-02-23T08:34:29.692Z,21.52
2023-02-23T08:36:56.863Z,20.48
2023-02-23T08:39:24.160Z,22.02
2023-02-23T08:41:52.526Z,20.50
2023-02-23T08:44:19.700Z,20.90
2023-02-23T08:46:46.888Z,25.02
2023-02-23T08:49:14.097Z,18.38
2023-02-23T08:51:41.467Z,20.48
2023-02-23T08:54:14.262Z,23.05
2023-02-23T08:56:41.826Z,19.17
2023-02-23T08:59:09.716Z,22.05
2023-02-23T09:01:37.816Z,18.13
2023-02-23T09:04:05.833Z,21.17
2023-02-23T09:06:35.268Z,17.10
2023-02-23T09:09:02.759Z,19.55
2023-02-23T09:11:29.916Z,21.48
2023-02-23T09:13:57.071Z,16.80
2023-02-23T09:16:24.472Z,19.58
2023-02-23T09:18:51.953Z,21.98
2023-02-23T09:21:22.197Z,19.65
2023-02-23T09:23:51.357Z,19.85
2023-02-23T09:26:19.537Z,20.20
2023-02-23T09:28:47.257Z,19.90
2023-02-23T09:31:16.019Z,17.08
2023-02-23T09:33:43.234Z,14.02
2023-02-23T09:36:20.990Z,18.75
2023-02-23T09:38:49.852Z,15.40
2023-02-23T09:41:35.058Z,16.48
2023-02-23T09:44:04.936Z,15.57
2023-02-23T09:46:55.157Z,16.58
2023-02-23T09:49:25.359Z,14.50
2023-02-23T09:51:57.569Z,15.27
2023-02-23T09:54:25.802Z,20.92
2023-02-23T09:56:56.316Z,16.40
2023-02-23T09:59:23.795Z,16.15
2023-02-23T10:01:53.836Z,15.05
2023-02-23T10:04:44.108Z,16.27
2023-02-23T10:07:34.017Z,14.45
2023-02-23T10:10:04.293Z,10.95
2023-02-23T10:12:50.173Z,12.48
2023-02-23T10:15:41.344Z,12.65
2023-02-23T10:18:27.021Z,17.58
2023-02-23T10:21:00.403Z,13.18
2023-02-23T10:23:31.255Z,10.45
2023-02-23T10:25:59.919Z,12.82
2023-02-23T10:28:27.773Z,11.75
2023-02-23T10:30:56.374Z,12.13
2023-02-23T10:33:26.943Z,13.68
2023-02-23T10:36:12.925Z,11.63
2023-02-23T10:38:41.112Z,11.23
2023-02-23T10:41:09.816Z,15.15
2023-02-23T10:43:37.021Z,15.13
2023-02-23T10:46:05.380Z,14.30
2023-02-23T10:48:43.287Z,14.30
2023-02-23T10:51:18.912Z,11.68
2023-02-23T10:53:46.575Z,12.02
2023-02-23T10:56:19.282Z,14.88
2023-02-23T10:58:46.674Z,15.10
2023-02-23T11:01:15.864Z,12.23
2023-02-23T11:03:45.753Z,11.93
2023-02-23T11:06:30.767Z,12.23
2023-02-23T11:08:57.957Z,10.98
2023-02-23T11:11:28.759Z,15.15
2023-02-23T11:13:57.229Z,12.93
2023-02-23T11:16:24.421Z,10.00
2023-02-23T11:18:54.667Z,10.40
2023-02-23T11:21:35.405Z,9.60
2023-02-23T11:24:20.957Z,14.13
2023-02-23T11:26:49.055Z,13.05
2023-02-23T11:29:16.263Z,10.82
2023-02-23T11:31:47.990Z,16.52
2023-02-23T11:34:21.200Z,13.65
2023-02-23T11:36:58.568Z,9.35
2023-02-23T11:39:25.718Z,8.98
2023-02-23T11:42:05.030Z,10.10
2023-02-23T11:44:33.776Z,12.50
2023-02-23T11:47:01.508Z,10.18
2023-02-23T11:49:32.016Z,8.52
2023-02-23T11:51:59.568Z,7.90
2023-02-23T11:54:29.287Z,10.27
2023-02-23T11:56:58.038Z,10.80
2023-02-23T11:59:29.827Z,9.65
2023-02-23T12:02:05.496Z,10.55
2023-02-23T12:04:37.430Z,11.85
2023-02-23T12:07:23.527Z,10.60
2023-02-23T12:09:56.434Z,9.35
2023-02-23T12:12:24.121Z,8.27
2023-02-23T12:15:09.861Z,11.45
2023-02-23T12:17:42.059Z,9.45
2023-02-23T12:20:18.789Z,13.32
2023-02-23T12:22:48.515Z,10.55
2023-02-23T12:25:45.053Z,11.55
2023-02-23T12:28:19.086Z,7.50
2023-02-23T12:30:58.359Z,8.25
2023-02-23T12:33:34.006Z,10.00
2023-02-23T12:36:13.664Z,10.40
2023-02-23T12:38:48.746Z,10.10
2023-02-23T12:41:20.027Z,10.43
2023-02-23T12:43:56.276Z,12.77
2023-02-23T12:46:26.057Z,8.40
2023-02-23T12:48:56.297Z,10.15
2023-02-23T12:51:26.482Z,12.00
2023-02-23T12:53:53.725Z,8.00
2023-02-23T12:56:21.271Z,12.82
2023-02-23T12:58:57.419Z,9.15
2023-02-23T13:01:43.582Z,9.05
2023-02-23T13:04:10.769Z,7.35
2023-02-23T13:06:45.439Z,7.63
2023-02-23T13:09:22.903Z,10.20
2023-02-23T13:12:01.902Z,7.40
2023-02-23T13:14:31.840Z,6.07
2023-02-23T13:17:17.972Z,6.53
2023-02-23T13:19:53.793Z,7.40
2023-02-23T13:22:27.399Z,7.25
2023-02-23T13:24:57.073Z,7.95
2023-02-23T13:27:31.295Z,7.30
2023-02-23T13:29:59.184Z,9.30
2023-02-23T13:32:32.094Z,6.85
2023-02-23T13:35:00.718Z,9.32
2023-02-23T13:37:34.881Z,6.40
2023-02-23T13:40:20.541Z,5.77
2023-02-23T13:43:07.098Z,9.65
2023-02-23T13:45:53.384Z,8.63
2023-02-23T13:48:31.719Z,8.43
2023-02-23T13:50:58.866Z,8.63
2023-02-23T13:53:34.861Z,7.20
2023-02-23T13:56:04.443Z,7.25
2023-02-23T13:58:32.821Z,10.88
2023-02-23T14:01:11.811Z,6.63
2023-02-23T14:03:41.932Z,5.93
2023-02-23T14:06:13.612Z,6.55
2023-02-23T14:08:42.778Z,5.70
2023-02-23T14:11:10.147Z,7.28
2023-02-23T14:13:42.857Z,5.22
2023-02-23T14:16:11.774Z,5.15
2023-02-23T14:18:58.017Z,5.38
2023-02-23T14:21:38.078Z,10.27
2023-02-23T14:24:14.035Z,5.05
2023-02-23T14:26:42.915Z,4.22
2023-02-23T14:29:27.005Z,4.60
2023-02-23T14:31:55.220Z,10.75
2023-02-23T14:34:25.717Z,4.85
2023-02-23T14:36:55.767Z,6.90
2023-02-23T14:39:29.197Z,5.75
2023-02-23T14:41:56.409Z,4.65
2023-02-23T14:44:30.250Z,6.22
2023-02-23T14:47:01.588Z,6.43
2023-02-23T14:49:31.590Z,6.03
2023-02-23T14:52:01.083Z,8.63
2023-02-23T14:54:32.197Z,7.65
2023-02-23T14:57:00.524Z,4.03
2023-02-23T14:59:29.704Z,5.45
2023-02-23T15:02:00.134Z,4.35
2023-02-23T15:04:29.944Z,3.88
2023-02-23T15:06:58.819Z,5.45
2023-02-23T15:09:43.332Z,3.15
2023-02-23T15:12:15.457Z,8.00
2023-02-23T15:14:42.873Z,3.58
2023-02-23T15:17:23.322Z,8.07
2023-02-23T15:20:00.036Z,4.15
2023-02-23T15:22:35.397Z,5.97
2023-02-23T15:25:07.002Z,2.75
2023-02-23T15:27:43.087Z,4.25
2023-02-23T15:30:33.085Z,5.88
2023-02-23T15:33:10.851Z,5.38
2023-02-23T15:35:58.239Z,5.25
2023-02-23T15:38:43.070Z,7.57
2023-02-23T15:41:18.742Z,4.25
2023-02-23T15:43:46.067Z,5.20
2023-02-23T15:46:24.306Z,5.15
2023-02-23T15:48:52.617Z,5.35
2023-02-23T15:51:33.159Z,4.80
2023-02-23T15:54:02.158Z,4.97
2023-02-23T15:56:30.498Z,6.07
2023-02-23T15:58:59.040Z,4.40
2023-02-23T16:01:28.369Z,4.93
2023-02-23T16:03:58.159Z,6.63
2023-02-23T16:06:36.236Z,4.82
2023-02-23T16:09:24.851Z,4.82
2023-02-23T16:11:53.481Z,4.35
2023-02-23T16:14:21.742Z,6.10
2023-02-23T16:17:08.360Z,6.05
2023-02-23T16:19:41.064Z,5.55
2023-02-23T16:22:15.767Z,6.22
2023-02-23T16:24:42.898Z,5.97
2023-02-23T16:27:12.059Z,5.28
2023-02-23T16:29:41.655Z,6.75
2023-02-23T16:32:17.014Z,5.43
2023-02-23T16:34:51.878Z,5.05
2023-02-23T16:37:23.039Z,3.67
2023-02-23T16:39:51.588Z,5.05
2023-02-23T16:42:25.039Z,5.35
2023-02-23T16:44:52.251Z,5.40
2023-02-23T16:47:25.553Z,5.60
2023-02-23T16:49:52.976Z,7.28
2023-02-23T16:52:22.422Z,5.10
2023-02-23T16:54:54.461Z,6.68
2023-02-23T16:57:26.154Z,6.07
2023-02-23T16:59:54.157Z,6.03
2023-02-23T17:02:24.193Z,4.32
2023-02-23T17:04:52.935Z,6.72
2023-02-23T17:07:23.160Z,7.93
2023-02-23T17:09:51.376Z,6.75
2023-02-23T17:12:21.587Z,5.60
2023-02-23T17:14:49.457Z,6.22
2023-02-23T17:17:18.007Z,5.93
2023-02-23T17:19:46.641Z,7.28
2023-02-23T17:22:13.904Z,5.80
2023-02-23T17:24:41.915Z,6.38
2023-02-23T17:27:09.527Z,6.57
2023-02-23T17:29:36.722Z,5.88
2023-02-23T17:32:04.164Z,6.88
2023-02-23T17:34:31.481Z,6.57
2023-02-23T17:36:58.646Z,5.25
2023-02-23T17:39:28.117Z,7.95
2023-02-23T17:41:56.009Z,6.10
2023-02-23T17:44:23.442Z,6.28
2023-02-23T17:46:50.628Z,6.50
2023-02-23T17:49:17.954Z,8.98
2023-02-23T17:51:45.189Z,7.35
2023-02-23T17:54:12.378Z,7.35
2023-02-23T17:56:39.516Z,5.88
2023-02-23T17:59:06.766Z,6.85
2023-02-23T18:01:34.477Z,6.63
2023-02-23T18:04:01.745Z,6.07
2023-02-23T18:06:31.382Z,4.75
2023-02-23T18:08:58.558Z,7.88
2023-02-23T18:11:26.009Z,5.65
2023-02-23T18:13:53.402Z,7.53
2023-02-23T18:16:21.637Z,5.35
2023-02-23T18:18:49.330Z,10.48
2023-02-23T18:21:18.186Z,5.53
2023-02-23T18:23:45.550Z,7.55
2023-02-23T18:26:14.154Z,5.72
2023-02-23T18:28:44.401Z,8.02
2023-02-23T18:31:15.961Z,7.30
2023-02-23T18:33:44.728Z,7.15
2023-02-23T18:36:19.308Z,13.50
2023-02-23T18:38:46.529Z,13.40
2023-02-23T18:41:13.728Z,15.57
2023-02-23T18:43:40.992Z,15.15
2023-02-23T18:46:09.622Z,22.83
2023-02-23T18:48:37.117Z,21.13
2023-02-23T18:51:05.728Z,16.75
2023-02-23T18:53:39.693Z,14.68
2023-02-23T18:56:07.810Z,10.48
2023-02-23T18:58:36.782Z,14.02
2023-02-23T19:01:10.953Z,10.25
2023-02-23T19:03:38.693Z,11.15
2023-02-23T19:06:10.520Z,14.50
2023-02-23T19:08:38.309Z,11.50
2023-02-23T19:11:05.874Z,10.10
2023-02-23T19:13:33.031Z,12.77
2023-02-23T19:16:04.214Z,13.45
2023-02-23T19:18:31.428Z,12.95
2023-02-23T19:20:58.593Z,14.18
2023-02-23T19:23:25.783Z,11.45
2023-02-23T19:25:53.485Z,24.83
2023-02-23T19:28:21.264Z,33.78
2023-02-23T19:30:49.099Z,29.48
2023-02-23T19:33:17.079Z,24.77
2023-02-23T19:35:45.088Z,22.05
2023-02-23T19:38:12.425Z,22.42
2023-02-23T19:40:42.611Z,22.85
2023-02-23T19:43:13.910Z,23.33
2023-02-23T19:45:46.073Z,23.92
2023-02-23T19:48:13.727Z,20.05
2023-02-23T19:50:40.952Z,23.85
2023-02-23T19:53:08.108Z,18.20
2023-02-23T19:55:35.251Z,22.80
2023-02-23T19:58:02.398Z,24.55
2023-02-23T20:00:29.566Z,23.10
2023-02-23T20:02:56.701Z,22.35
2023-02-23T20:05:25.597Z,23.27
2023-02-23T20:07:52.961Z,23.35
2023-02-23T20:10:25.659Z,20.13
2023-02-23T20:12:53.403Z,21.33
2023-02-23T20:15:20.656Z,20.83
2023-02-23T20:17:48.130Z,23.08
2023-02-23T20:20:15.861Z,18.55
2023-02-23T20:22:45.036Z,20.50
2023-02-23T20:25:15.814Z,18.17
2023-02-23T20:27:44.284Z,18.55
2023-02-23T20:30:12.851Z,20.52
2023-02-23T20:32:40.216Z,26.60
2023-02-23T20:35:07.882Z,28.33
2023-02-23T20:37:35.088Z,27.30
2023-02-23T20:40:02.221Z,29.33
2023-02-23T20:42:29.409Z,27.88
2023-02-23T20:44:56.609Z,23.17
2023-02-23T20:47:24.145Z,20.25
2023-02-23T20:49:51.293Z,24.02
2023-02-23T20:52:18.520Z,28.02
2023-02-23T20:54:45.724Z,21.95
2023-02-23T20:57:12.895Z,25.23
2023-02-23T20:59:40.477Z,21.40
2023-02-23T21:02:09.449Z,21.40
2023-02-23T21:04:38.458Z,23.27
2023-02-23T21:07:06.836Z,26.30
2023-02-23T21:09:33.995Z,28.83
2023-02-23T21:12:01.192Z,19.67
2023-02-23T21:14:28.344Z,21.48
2023-02-23T21:16:55.536Z,27.00
2023-02-23T21:19:22.726Z,20.73
2023-02-23T21:21:50.929Z,20.55
2023-02-23T21:24:20.530Z,19.85
2023-02-23T21:26:47.958Z,20.48
2023-02-23T21:29:16.512Z,17.73
2023-02-23T21:31:44.904Z,16.92
2023-02-23T21:34:12.296Z,16.80
2023-02-23T21:36:39.522Z,14.27
2023-02-23T21:39:07.096Z,14.68
2023-02-23T21:41:34.695Z,12.32
2023-02-23T21:44:02.303Z,13.25
2023-02-23T21:46:29.725Z,13.95
2023-02-23T21:48:56.975Z,13.63
2023-02-23T21:51:24.158Z,14.50
2023-02-23T21:53:51.394Z,13.70
2023-02-23T21:56:21.406Z,13.15
2023-02-23T21:58:53.140Z,13.25
2023-02-23T22:01:22.215Z,11.45
2023-02-23T22:03:49.707Z,15.73
2023-02-23T22:06:20.813Z,13.70
2023-02-23T22:08:50.264Z,14.95
2023-02-23T22:11:19.491Z,15.13
2023-02-23T22:13:50.763Z,14.30
2023-02-23T22:16:19.498Z,12.80
2023-02-23T22:18:46.809Z,11.02
2023-02-23T22:21:14.192Z,10.93
2023-02-23T22:23:43.425Z,13.65
2023-02-23T22:26:10.786Z,10.65
2023-02-23T22:28:37.908Z,11.63
2023-02-23T22:31:07.075Z,16.13
2023-02-23T22:33:35.222Z,11.98
2023-02-23T22:36:03.534Z,10.60
2023-02-23T22:38:30.796Z,10.98
2023-02-23T22:40:59.297Z,9.77
2023-02-23T22:43:27.294Z,9.30
2023-02-23T22:45:55.275Z,10.35
2023-02-23T22:48:23.574Z,9.98
2023-02-23T22:50:51.343Z,11.40
2023-02-23T22:53:18.767Z,11.50
2023-02-23T22:55:49.353Z,11.05
2023-02-23T22:58:17.499Z,12.63
2023-02-23T23:01:02.225Z,14.35
2023-02-23T23:03:31.573Z,12.85
2023-02-23T23:06:02.453Z,11.38
2023-02-23T23:08:30.993Z,12.48
2023-02-23T23:11:04.000Z,12.45
2023-02-23T23:13:32.069Z,14.10
2023-02-23T23:16:07.811Z,14.80
2023-02-23T23:18:36.323Z,13.52
2023-02-23T23:21:03.541Z,11.30
2023-02-23T23:23:30.678Z,16.23
2023-02-23T23:25:57.847Z,15.45
2023-02-23T23:28:27.248Z,13.63
2023-02-23T23:30:56.161Z,15.25
2023-02-23T23:33:26.911Z,14.02
2023-02-23T23:35:54.139Z,13.20
2023-02-23T23:38:21.269Z,11.73
2023-02-23T23:40:48.428Z,15.52
2023-02-23T23:43:15.579Z,12.88
2023-02-23T23:45:43.845Z,18.30
2023-02-23T23:48:11.243Z,13.65
2023-02-23T23:50:39.510Z,9.20
2023-02-23T23:53:07.658Z,9.50
2023-02-23T23:55:36.202Z,10.15
2023-02-23T23:58:03.854Z,9.60
